Valparaiso, FL

6:27 PM CDT on October 20, 2014 (GMT -0500)
Eglin Air Force Base | Change Station
CLOSE
Current Station
Airport
Location: Valparaiso,
Elevation: 85 ft
Nearby Weather Stations

Elev 85 ft 30.48 °N, 86.53 °W | Updated 32 minutes ago

Partly Cloudy
Partly Cloudy
74 °F
Feels Like 74 °F
N
5
Wind Variable Wind from SW

Today
High -- | Low -- °F
--% Chance of Precip.
Yesterday
High -- | Low -- °F
Precip. -- in
6:51 AM 6:09 PM
Waning Crescent, 8% visible
Pressure 30.00 in
Visibility 10.0 miles
Clouds Few 4500 ft
Scattered Clouds 24000 ft
Dew Point 63 °F
Humidity 67%
Rainfall 0.00 in
Snow Depth Not available.
UV 0 out of 12
Pollen 3.60 out of 12
Ozone Good
PM2.5 Good
Flu Activity Local Activity
METAR KVPS 202255Z 23004KT 10SM FEW045 SCT240 23/17 A2998 RMK AO2A SLP158 T02340170 $

More Conditions Fewer Conditions

Pressure 30.00 in
Visibility 10.0 miles
Clouds Few 4500 ft
Scattered Clouds 24000 ft
Dew Point 63 °F
Humidity 67%
Rainfall 0.00 in
Snow Depth Not available.
UV 0 out of 12
Pollen 3.60 out of 12
Ozone Good
PM2.5 Good
Flu Activity Local Activity
METAR KVPS 202255Z 23004KT 10SM FEW045 SCT240 23/17 A2998 RMK AO2A SLP158 T02340170 $

More Conditions Fewer Conditions

10-Day Weather Forecast

Almanac

Astronomy

Oct. 20, 2014 Rise Set
Actual Time 6:51 AM CDT 6:09 PM CDT
Civil Twilight 6:27 AM CDT 6:33 PM CDT
Nautical Twilight 5:59 AM CDT 7:01 PM CDT
Astronomical Twilight 5:31 AM CDT 7:29 PM CDT
Moon 3:52 AM CDT 4:20 PM CDT
Length of Visible Light 12h 06m
Length of Day
11h 17m
Tomorrow will be 1m 43s shorter.
Waning Crescent, 8% of the Moon is Illuminated
Today
Waning Crescent
Oct 23
New
Oct 30
First Quarter
Nov 6
Full
Nov 14
Last Quarter

Today's Extremes

State Highs State Lows

Community

WunderPhotos

Upload Photos

1,763,544 photos uploaded!

WunderBlogs® & News

By Dr. Jeff Masters
Director of Meteorology, Weather Underground
By Kari Strenfel
Meteorologist, Weather Underground
By Christopher C. Burt
Weather Historian, Weather Underground
October 20, 2014
October 20, 2014
October 20, 2014

Nearby

Air Quality

  Air Quality AQ Index Pollutant
Yesterday Moderate
PM2.5
Yesterday Good
OZONE
Current Good
PM2.5
Current Good
OZONE
Monday Moderate
PM2.5
Monday Good
OZONE
Tuesday Moderate
PM2.5
Tuesday Good
OZONE

Snow Depth

Station Depth Elevation
No new snow has been reported.

Earthquake Activity

City Distance Mag. Time & Date
No recent earthquake activity has been reported nearby.
Minimum magnitude displayed is 2.5.

Coastal Water Temperatures

Place Temperature
No Stations Reporting

Nearby Weather Stations